Time;durP1;ratioP1;P1;durP2;ratioP2;P2;SDS_P1;SDS_P2;PMS_P1;PMS_P2;Temp;Humidity;BMP_temperature;BMP_pressure;BME280_temperature;BME280_humidity;BME280_pressure;Samples;Min_cycle;Max_cycle;Signal;HPM_P1;HPM_P2
2023/01/10 00:02:02;;;;;;;4.93;0.40;;;4.60;99.90;;;;;;6250402;22;20447;-81
2023/01/10 00:04:28;;;;;;;5.20;0.80;;;4.60;99.90;;;;;;6277195;22;20003;-82
2023/01/10 00:06:54;;;;;;;7.72;0.50;;;4.70;99.90;;;;;;6302914;22;20125;-83
2023/01/10 00:09:20;;;;;;;2.65;0.40;;;4.70;99.90;;;;;;6304611;22;20003;-83
2023/01/10 00:14:33;;;;;;;4.45;0.30;;;4.60;99.90;;;;;;6304121;22;20013;-82
2023/01/10 00:17:02;;;;;;;2.13;0.30;;;4.50;99.90;;;;;;6303712;22;20025;-81
2023/01/10 00:19:28;;;;;;;4.90;0.40;;;4.60;99.90;;;;;;6304460;22;20074;-82
2023/01/10 00:21:56;;;;;;;4.22;0.40;;;4.50;99.90;;;;;;6276452;22;20038;-83
2023/01/10 00:24:22;;;;;;;3.22;0.40;;;4.50;99.90;;;;;;6304884;22;20003;-82
2023/01/10 00:26:50;;;;;;;5.43;0.60;;;4.40;99.90;;;;;;6276746;22;20011;-82
2023/01/10 00:29:20;;;;;;;1.85;0.30;;;4.40;99.90;;;;;;6276327;22;20010;-82
2023/01/10 00:31:47;;;;;;;5.43;0.65;;;4.40;99.90;;;;;;6251371;22;20026;-83
2023/01/10 00:34:13;;;;;;;6.28;0.75;;;4.60;99.90;;;;;;6276888;22;20355;-82
2023/01/10 00:36:39;;;;;;;5.25;0.60;;;4.60;99.90;;;;;;6303742;22;20332;-82
2023/01/10 00:39:05;;;;;;;3.83;0.60;;;4.60;99.90;;;;;;6276679;22;20011;-82
2023/01/10 00:44:15;;;;;;;5.90;0.60;;;4.70;99.90;;;;;;6303855;22;20037;-82
2023/01/10 00:46:40;;;;;;;8.20;0.90;;;4.80;99.90;;;;;;6304114;22;20019;-82
2023/01/10 00:49:10;;;;;;;5.15;0.60;;;4.80;99.90;;;;;;6302182;22;20012;-82
2023/01/10 00:51:36;;;;;;;4.53;0.70;;;4.90;99.90;;;;;;6304642;22;20007;-82
2023/01/10 00:54:02;;;;;;;9.07;1.00;;;4.80;99.90;;;;;;6304315;22;20065;-82
2023/01/10 00:56:28;;;;;;;8.73;0.77;;;4.80;99.90;;;;;;6303529;22;20006;-82
2023/01/10 00:58:54;;;;;;;9.65;1.00;;;4.80;99.90;;;;;;6303334;22;20041;-82
2023/01/10 01:01:19;;;;;;;10.55;2.30;;;4.80;99.90;;;;;;6301081;22;20026;-81
2023/01/10 01:03:45;;;;;;;11.98;0.95;;;5.00;99.90;;;;;;6276511;22;20007;-81
2023/01/10 01:06:11;;;;;;;9.30;0.80;;;5.00;99.90;;;;;;6302227;22;20014;-81
2023/01/10 01:08:36;;;;;;;11.95;0.73;;;5.00;99.90;;;;;;6303849;22;20320;-80
2023/01/10 01:11:02;;;;;;;6.72;0.68;;;5.10;99.90;;;;;;6276230;22;20003;-82
2023/01/10 01:13:28;;;;;;;9.07;0.80;;;5.20;99.90;;;;;;6275663;22;20009;-82
2023/01/10 01:15:58;;;;;;;14.13;1.27;;;5.20;99.90;;;;;;6276416;22;20325;-82
2023/01/10 01:18:24;;;;;;;10.55;1.20;;;5.20;99.90;;;;;;6303317;22;20019;-82
2023/01/10 01:20:55;;;;;;;5.93;0.70;;;5.20;99.90;;;;;;6303698;22;20003;-82
2023/01/10 01:23:21;;;;;;;8.70;0.60;;;5.20;99.90;;;;;;6303958;22;20011;-83
2023/01/10 01:25:53;;;;;;;8.05;0.60;;;5.30;99.90;;;;;;6303972;22;20479;-82
2023/01/10 01:28:20;;;;;;;11.55;0.85;;;5.20;99.90;;;;;;6303185;22;20003;-83
2023/01/10 01:30:46;;;;;;;9.43;0.60;;;5.20;99.90;;;;;;6304039;22;20373;-82
2023/01/10 01:33:12;;;;;;;4.10;0.40;;;5.20;99.90;;;;;;6250198;22;20077;-82
2023/01/10 01:35:44;;;;;;;6.75;0.40;;;5.10;99.90;;;;;;6276536;22;20007;-82
2023/01/10 01:38:10;;;;;;;6.55;0.55;;;5.00;99.90;;;;;;6303504;22;20064;-82
2023/01/10 01:40:40;;;;;;;7.65;0.30;;;4.90;99.90;;;;;;6276185;22;20011;-82
2023/01/10 01:43:55;;;;;;;6.60;0.30;;;4.80;99.90;;;;;;6302510;22;20015;-82
2023/01/10 01:46:22;;;;;;;3.30;0.35;;;4.70;99.90;;;;;;6293896;22;19999;-82
2023/01/10 01:48:47;;;;;;;3.55;0.20;;;4.60;99.90;;;;;;6275392;22;20035;-82
2023/01/10 01:51:19;;;;;;;4.32;0.30;;;4.60;99.90;;;;;;6302293;22;20007;-82
2023/01/10 01:53:47;;;;;;;6.78;0.50;;;4.60;99.90;;;;;;6275756;22;20007;-82
2023/01/10 01:56:23;;;;;;;8.48;0.60;;;4.80;99.90;;;;;;6302821;22;20074;-82
2023/01/10 01:59:11;;;;;;;9.85;0.60;;;4.80;99.90;;;;;;6250468;22;20007;-82
2023/01/10 02:01:40;;;;;;;10.52;0.75;;;4.70;99.90;;;;;;6272782;22;20072;-82
2023/01/10 02:04:19;;;;;;;7.53;0.40;;;4.70;99.90;;;;;;6302754;22;19999;-82
2023/01/10 02:06:50;;;;;;;6.15;0.40;;;4.60;99.90;;;;;;6276150;22;20015;-81
2023/01/10 02:09:31;;;;;;;9.82;0.60;;;4.60;99.90;;;;;;6250659;22;20367;-82
2023/01/10 02:11:57;;;;;;;7.45;0.80;;;4.70;99.90;;;;;;6301028;22;20011;-82
2023/01/10 02:14:25;;;;;;;5.45;0.50;;;4.70;99.90;;;;;;6302944;22;20006;-82
2023/01/10 02:16:50;;;;;;;4.63;0.63;;;4.70;99.90;;;;;;6275769;22;20045;-82
2023/01/10 02:19:50;;;;;;;5.47;0.50;;;4.60;99.90;;;;;;6301317;22;20004;-82
2023/01/10 02:22:42;;;;;;;3.30;0.30;;;4.70;99.90;;;;;;6252469;22;20011;-82
2023/01/10 02:25:44;;;;;;;5.72;0.30;;;4.50;99.90;;;;;;6268647;22;20584;-82
2023/01/10 02:28:28;;;;;;;4.68;0.30;;;4.60;99.90;;;;;;6275786;22;20007;-82
2023/01/10 02:30:59;;;;;;;5.45;0.38;;;4.60;99.90;;;;;;6275589;22;20068;-82
2023/01/10 02:33:31;;;;;;;3.88;0.20;;;4.70;99.90;;;;;;6275557;22;20015;-82
2023/01/10 02:36:03;;;;;;;5.68;0.30;;;4.80;99.90;;;;;;6303060;22;20003;-82
2023/01/10 02:38:50;;;;;;;1.80;0.20;;;4.70;99.90;;;;;;6275334;22;20022;-82
2023/01/10 02:41:29;;;;;;;6.50;0.20;;;4.70;99.90;;;;;;6303033;22;20007;-82
2023/01/10 02:44:20;;;;;;;5.30;0.35;;;4.70;99.90;;;;;;6302923;22;20082;-82
2023/01/10 02:46:47;;;;;;;2.33;0.50;;;4.60;99.90;;;;;;6302460;22;20032;-82
2023/01/10 02:49:13;;;;;;;2.10;0.40;;;4.70;99.90;;;;;;6302409;22;20000;-82
2023/01/10 02:51:39;;;;;;;7.05;0.25;;;4.70;99.90;;;;;;6303664;22;20090;-82
2023/01/10 02:54:26;;;;;;;5.25;0.30;;;4.70;99.90;;;;;;6301548;22;20347;-82
2023/01/10 02:57:16;;;;;;;3.20;0.20;;;4.70;99.90;;;;;;6301408;22;20371;-82
2023/01/10 03:00:00;;;;;;;3.42;0.30;;;4.80;99.90;;;;;;6302027;22;20087;-82
2023/01/10 03:02:41;;;;;;;6.55;0.30;;;4.90;99.90;;;;;;6301634;22;20434;-82
2023/01/10 03:05:17;;;;;;;5.30;0.70;;;4.90;99.90;;;;;;6301240;22;20049;-82
2023/01/10 03:08:03;;;;;;;5.32;0.30;;;4.90;99.90;;;;;;6300487;22;20007;-82
2023/01/10 03:10:44;;;;;;;4.20;0.20;;;4.90;99.90;;;;;;6273952;22;20336;-82
2023/01/10 03:13:36;;;;;;;6.05;0.80;;;4.90;99.90;;;;;;6273482;22;20382;-82
2023/01/10 03:16:06;;;;;;;1.95;0.30;;;5.00;99.90;;;;;;6273864;22;20045;-82
2023/01/10 03:18:39;;;;;;;2.45;0.52;;;5.00;99.90;;;;;;6248633;22;20011;-82
2023/01/10 03:21:07;;;;;;;5.35;0.30;;;5.00;99.90;;;;;;6301154;22;20436;-82
2023/01/10 03:23:34;;;;;;;4.60;0.30;;;4.90;99.90;;;;;;6272322;22;20062;-82
2023/01/10 03:26:02;;;;;;;5.60;0.50;;;4.90;99.90;;;;;;6273615;22;20057;-82
2023/01/10 03:28:37;;;;;;;4.53;0.32;;;5.00;99.90;;;;;;6247670;22;20004;-82
2023/01/10 03:31:12;;;;;;;6.55;0.52;;;5.00;99.90;;;;;;6300956;22;20038;-83
2023/01/10 03:33:38;;;;;;;3.63;0.40;;;5.00;99.90;;;;;;6301188;22;20512;-82
2023/01/10 03:36:35;;;;;;;8.38;0.50;;;5.00;99.90;;;;;;6300841;22;20023;-83
2023/01/10 03:39:11;;;;;;;4.80;0.50;;;5.00;99.90;;;;;;6273107;22;20011;-82
2023/01/10 03:41:39;;;;;;;4.28;0.40;;;5.00;99.90;;;;;;6301632;22;20057;-82
2023/01/10 03:47:31;;;;;;;5.30;0.60;;;5.00;99.90;;;;;;6273412;22;20295;-82
2023/01/10 03:50:05;;;;;;;5.70;0.50;;;4.90;99.90;;;;;;6301086;22;20030;-82
2023/01/10 03:52:33;;;;;;;3.90;0.50;;;4.90;99.90;;;;;;6247501;22;20335;-82
2023/01/10 03:54:59;;;;;;;4.32;0.52;;;4.80;99.90;;;;;;6219607;22;1261732;-82
2023/01/10 03:57:25;;;;;;;3.15;0.52;;;4.70;99.90;;;;;;6302801;22;20332;-82
2023/01/10 03:59:53;;;;;;;10.10;0.90;;;4.70;99.90;;;;;;6301959;22;20003;-82
2023/01/10 04:02:19;;;;;;;4.85;0.70;;;4.70;99.90;;;;;;6302901;22;20073;-82
2023/01/10 04:04:45;;;;;;;4.60;0.75;;;4.60;99.90;;;;;;6302342;22;20448;-82
2023/01/10 04:07:11;;;;;;;3.65;0.50;;;4.60;99.90;;;;;;6301427;22;20057;-82
2023/01/10 04:09:37;;;;;;;4.20;0.90;;;4.60;99.90;;;;;;6274962;22;20007;-82
2023/01/10 04:12:03;;;;;;;6.60;0.63;;;4.50;99.90;;;;;;6275180;22;20018;-82
2023/01/10 04:14:28;;;;;;;4.80;0.60;;;4.50;99.90;;;;;;6300775;22;20428;-82
2023/01/10 04:16:54;;;;;;;3.28;0.40;;;4.40;99.90;;;;;;6302248;22;20439;-81
2023/01/10 04:19:20;;;;;;;4.28;0.60;;;4.40;99.90;;;;;;6250444;22;20003;-82
2023/01/10 04:21:45;;;;;;;6.40;0.80;;;4.40;99.90;;;;;;6276265;22;20014;-82
2023/01/10 04:24:11;;;;;;;6.53;0.88;;;4.40;99.90;;;;;;6302245;22;20029;-82
2023/01/10 04:26:37;;;;;;;5.45;0.70;;;4.30;99.90;;;;;;6304210;22;20090;-82
2023/01/10 04:29:04;;;;;;;9.57;1.13;;;4.30;99.90;;;;;;6302388;22;20031;-82
2023/01/10 04:31:30;;;;;;;4.75;0.80;;;4.30;99.90;;;;;;6277048;22;20056;-82
2023/01/10 04:33:56;;;;;;;7.22;0.70;;;4.20;99.90;;;;;;6276623;22;20007;-82
2023/01/10 04:36:22;;;;;;;3.83;0.70;;;4.20;99.90;;;;;;6303346;22;20007;-82
2023/01/10 04:38:47;;;;;;;9.45;0.70;;;4.20;99.90;;;;;;6303833;22;20015;-82
2023/01/10 04:41:13;;;;;;;5.97;0.68;;;4.20;99.90;;;;;;6302830;22;19995;-82
2023/01/10 04:43:38;;;;;;;7.18;0.70;;;4.20;99.90;;;;;;6304387;22;20007;-82
2023/01/10 04:46:04;;;;;;;3.13;0.40;;;4.20;99.90;;;;;;6276285;22;19999;-81
2023/01/10 04:48:30;;;;;;;4.60;0.50;;;4.20;99.90;;;;;;6304045;22;20003;-81
2023/01/10 04:50:55;;;;;;;3.88;0.50;;;4.20;99.90;;;;;;6303460;22;20056;-82
2023/01/10 04:53:21;;;;;;;5.65;0.45;;;4.10;99.90;;;;;;6275514;22;20004;-82
2023/01/10 04:55:47;;;;;;;6.95;0.80;;;4.20;99.90;;;;;;6276275;22;20011;-82
2023/01/10 04:58:13;;;;;;;4.18;0.40;;;4.10;99.90;;;;;;6304102;22;20051;-82
2023/01/10 05:00:39;;;;;;;8.80;0.80;;;4.20;99.90;;;;;;6276132;22;20010;-82
2023/01/10 05:03:05;;;;;;;6.35;0.40;;;4.10;99.90;;;;;;6303755;22;20022;-82
2023/01/10 05:05:31;;;;;;;2.33;0.80;;;4.00;99.90;;;;;;6276026;22;20094;-82
2023/01/10 05:07:57;;;;;;;11.32;1.23;;;4.00;99.90;;;;;;6250457;22;20011;-82
2023/01/10 05:10:23;;;;;;;8.98;0.70;;;4.20;99.90;;;;;;6304051;22;20004;-82
2023/01/10 05:12:49;;;;;;;6.22;0.85;;;4.20;99.90;;;;;;6302387;22;20448;-82
2023/01/10 05:15:14;;;;;;;5.30;0.55;;;4.20;99.90;;;;;;6303722;22;20006;-82
2023/01/10 05:17:40;;;;;;;4.80;0.57;;;4.20;99.90;;;;;;6275431;22;20038;-82
2023/01/10 05:20:07;;;;;;;3.13;0.60;;;4.30;99.90;;;;;;6303091;22;20022;-83
2023/01/10 05:22:33;;;;;;;6.00;1.00;;;4.40;99.90;;;;;;6302381;22;20589;-82
2023/01/10 05:24:58;;;;;;;8.80;0.93;;;4.50;99.90;;;;;;6303118;22;20320;-82
2023/01/10 05:27:24;;;;;;;5.85;0.60;;;4.60;99.90;;;;;;6303544;22;20011;-82
2023/01/10 05:29:50;;;;;;;4.05;0.57;;;4.60;99.90;;;;;;6275603;22;20029;-82
2023/01/10 05:32:16;;;;;;;9.85;0.70;;;4.70;99.90;;;;;;6304215;22;20294;-82
2023/01/10 05:34:42;;;;;;;4.82;0.47;;;4.70;99.90;;;;;;6275181;22;20006;-82
2023/01/10 05:37:08;;;;;;;5.80;0.73;;;4.70;99.90;;;;;;6275872;22;20089;-82
2023/01/10 05:39:33;;;;;;;5.50;0.50;;;4.80;99.90;;;;;;6303647;22;20420;-82
2023/01/10 05:41:59;;;;;;;4.03;0.60;;;4.80;99.90;;;;;;6301984;22;20033;-82
2023/01/10 05:44:25;;;;;;;7.10;1.15;;;4.80;99.90;;;;;;6303229;22;20380;-82
2023/01/10 05:46:50;;;;;;;4.13;0.50;;;4.80;99.90;;;;;;6275925;22;20064;-82
2023/01/10 05:49:16;;;;;;;5.18;0.60;;;4.80;99.90;;;;;;6301732;22;20428;-82
2023/01/10 05:51:42;;;;;;;6.20;0.50;;;4.80;99.90;;;;;;6275740;22;20003;-82
2023/01/10 05:54:08;;;;;;;6.28;0.60;;;4.90;99.90;;;;;;6302922;22;20357;-81
2023/01/10 05:56:33;;;;;;;6.15;0.68;;;4.80;99.90;;;;;;6300587;22;20000;-82
2023/01/10 05:58:59;;;;;;;5.18;0.57;;;4.80;99.90;;;;;;6301724;22;20074;-81
2023/01/10 06:01:25;;;;;;;4.55;0.50;;;4.70;99.90;;;;;;6275698;22;20007;-82
2023/01/10 06:03:50;;;;;;;4.47;0.60;;;4.70;99.90;;;;;;6302406;22;20010;-82
2023/01/10 06:06:16;;;;;;;6.90;0.57;;;4.70;99.90;;;;;;6301528;22;20004;-82
2023/01/10 06:08:42;;;;;;;4.22;0.60;;;4.70;99.90;;;;;;6275105;22;20014;-82
2023/01/10 06:11:07;;;;;;;5.32;0.88;;;4.70;99.90;;;;;;6249525;22;20011;-82
2023/01/10 06:13:33;;;;;;;7.60;0.60;;;4.60;99.90;;;;;;6303166;22;19999;-81
2023/01/10 06:15:59;;;;;;;4.68;1.08;;;4.60;99.90;;;;;;6301019;22;20044;-81
2023/01/10 06:18:25;;;;;;;6.15;0.40;;;4.60;99.90;;;;;;6301260;22;20118;-82
2023/01/10 06:20:51;;;;;;;5.82;0.68;;;4.60;99.90;;;;;;6302725;22;20006;-81
2023/01/10 06:23:16;;;;;;;3.45;0.50;;;4.60;99.90;;;;;;6303468;22;20030;-82
2023/01/10 06:25:43;;;;;;;4.97;0.80;;;4.60;99.90;;;;;;6300723;22;20039;-82
2023/01/10 06:28:10;;;;;;;5.63;0.68;;;4.70;99.90;;;;;;6275388;22;20098;-82
2023/01/10 06:30:36;;;;;;;6.05;0.80;;;4.70;99.90;;;;;;6275296;22;20062;-82
2023/01/10 06:33:03;;;;;;;7.38;0.68;;;4.70;99.90;;;;;;6301753;22;20011;-82
2023/01/10 06:35:29;;;;;;;6.57;0.90;;;4.70;99.90;;;;;;6302988;22;20030;-82
2023/01/10 06:37:54;;;;;;;10.00;0.68;;;4.60;99.90;;;;;;6302489;22;20370;-82
2023/01/10 06:40:20;;;;;;;5.55;0.68;;;4.60;99.90;;;;;;6302217;22;20000;-82
2023/01/10 06:42:46;;;;;;;6.10;0.65;;;4.60;99.90;;;;;;6263976;22;20015;-77
2023/01/10 06:45:11;;;;;;;7.30;0.57;;;4.60;99.90;;;;;;6231719;22;20353;-83
2023/01/10 06:47:40;;;;;;;6.20;0.60;;;4.70;99.90;;;;;;6249592;22;20380;-83
2023/01/10 06:50:06;;;;;;;9.95;0.68;;;4.60;99.90;;;;;;6256948;22;20046;-84
2023/01/10 06:52:32;;;;;;;8.38;0.60;;;4.70;99.90;;;;;;6231514;22;20462;-87
2023/01/10 06:54:58;;;;;;;5.75;0.43;;;4.70;99.90;;;;;;6230594;22;20029;-89
2023/01/10 06:57:24;;;;;;;5.05;0.40;;;4.70;99.90;;;;;;6226049;22;20404;-82
2023/01/10 06:59:50;;;;;;;5.00;0.50;;;4.70;99.90;;;;;;6242771;22;20499;-87
2023/01/10 07:02:19;;;;;;;11.45;0.70;;;4.80;99.90;;;;;;6212562;22;20011;-81
2023/01/10 07:04:46;;;;;;;3.13;0.60;;;4.80;99.90;;;;;;6231193;22;20019;-82
2023/01/10 07:07:12;;;;;;;3.88;0.60;;;4.80;99.90;;;;;;6283439;22;20068;-82
2023/01/10 07:09:38;;;;;;;4.88;0.70;;;4.80;99.90;;;;;;6230648;22;20011;-83
2023/01/10 07:12:04;;;;;;;9.15;1.25;;;4.80;99.90;;;;;;6254663;22;20764;-86
2023/01/10 07:14:29;;;;;;;5.93;0.70;;;4.80;99.90;;;;;;6281959;22;20102;-83
2023/01/10 07:16:55;;;;;;;5.78;0.60;;;4.90;99.90;;;;;;6282357;22;20490;-82
2023/01/10 07:19:21;;;;;;;4.68;0.70;;;4.80;99.90;;;;;;6257427;22;20382;-91
2023/01/10 07:21:46;;;;;;;11.32;0.80;;;4.90;99.90;;;;;;6255989;22;20495;-91
2023/01/10 07:24:12;;;;;;;5.28;0.70;;;4.80;99.90;;;;;;6255537;22;20014;-86
2023/01/10 07:26:38;;;;;;;6.30;0.60;;;4.80;99.90;;;;;;6231928;22;20526;-92
2023/01/10 07:29:06;;;;;;;8.25;0.63;;;4.80;99.90;;;;;;6258937;22;20042;-84
2023/01/10 07:31:32;;;;;;;6.28;0.80;;;4.80;99.90;;;;;;6270193;22;20118;-92
2023/01/10 07:33:58;;;;;;;7.18;1.27;;;4.90;99.90;;;;;;6239637;22;20050;-93
2023/01/10 07:36:23;;;;;;;9.65;0.75;;;4.80;99.90;;;;;;6199358;22;20015;-93
2023/01/10 07:38:49;;;;;;;4.68;0.50;;;4.90;99.90;;;;;;6274974;22;20503;-83
2023/01/10 07:41:15;;;;;;;9.15;0.60;;;4.90;99.90;;;;;;6218641;22;20594;-91
2023/01/10 07:43:41;;;;;;;4.35;0.60;;;4.90;99.90;;;;;;6256975;22;20027;-82
2023/01/10 07:46:08;;;;;;;7.18;0.45;;;4.90;99.90;;;;;;6282240;22;20501;-83
2023/01/10 07:48:35;;;;;;;8.65;0.60;;;4.90;99.90;;;;;;6227366;22;20014;-82
2023/01/10 07:51:01;;;;;;;9.15;0.57;;;4.90;99.90;;;;;;6248503;22;20046;-82
2023/01/10 07:53:28;;;;;;;9.57;0.73;;;4.90;99.90;;;;;;6218812;22;20469;-82
2023/01/10 07:55:58;;;;;;;6.90;0.52;;;4.90;99.90;;;;;;6230095;22;20065;-85
2023/01/10 07:58:24;;;;;;;11.52;0.75;;;4.90;99.90;;;;;;6242823;22;20039;-82
2023/01/10 08:00:50;;;;;;;5.35;0.63;;;4.90;99.90;;;;;;6280195;22;20012;-84
2023/01/10 08:03:16;;;;;;;8.88;0.70;;;4.90;99.90;;;;;;6257792;22;20018;-87
2023/01/10 08:05:42;;;;;;;9.75;0.70;;;4.90;99.90;;;;;;6243350;22;20012;-84
2023/01/10 08:08:10;;;;;;;7.35;0.90;;;4.90;99.90;;;;;;6230946;22;20030;-87
2023/01/10 08:10:38;;;;;;;12.38;0.80;;;4.90;99.90;;;;;;6232367;22;20012;-82
2023/01/10 08:13:04;;;;;;;12.00;1.50;;;4.90;99.90;;;;;;6218248;22;20553;-83
2023/01/10 08:15:30;;;;;;;13.82;1.58;;;4.90;99.90;;;;;;6232376;22;20007;-84
2023/01/10 08:18:01;;;;;;;5.90;0.52;;;4.80;99.90;;;;;;6230845;22;20122;-83
2023/01/10 08:20:27;;;;;;;8.88;0.60;;;4.70;99.90;;;;;;6286198;22;20099;-91
2023/01/10 08:22:55;;;;;;;6.28;0.50;;;4.70;99.90;;;;;;6232120;22;20011;-82
2023/01/10 08:25:21;;;;;;;12.00;0.85;;;4.60;99.90;;;;;;6258082;22;20722;-84
2023/01/10 08:27:46;;;;;;;15.07;1.35;;;4.60;99.90;;;;;;6256948;22;20022;-91
2023/01/10 08:30:12;;;;;;;9.18;1.30;;;4.60;99.90;;;;;;6244896;22;20101;-84
2023/01/10 08:32:45;;;;;;;9.75;1.08;;;4.60;99.90;;;;;;6212638;22;20094;-82
2023/01/10 08:35:11;;;;;;;10.38;0.80;;;4.60;99.90;;;;;;6221681;22;20416;-82
2023/01/10 08:37:36;;;;;;;12.48;1.20;;;4.60;99.90;;;;;;6217069;22;20049;-81
2023/01/10 08:40:02;;;;;;;8.75;0.80;;;4.60;99.90;;;;;;6241362;22;19999;-85
2023/01/10 08:42:28;;;;;;;11.45;1.17;;;4.60;99.90;;;;;;6257591;22;20394;-84
2023/01/10 08:44:54;;;;;;;8.73;0.82;;;4.70;99.90;;;;;;6257789;22;20023;-84
2023/01/10 08:47:20;;;;;;;9.18;0.70;;;4.70;99.90;;;;;;6235477;22;20192;-81
2023/01/10 08:49:48;;;;;;;11.68;1.17;;;4.70;99.90;;;;;;6240777;22;20451;-83
2023/01/10 08:52:14;;;;;;;11.23;1.38;;;4.80;99.90;;;;;;6256503;22;20064;-83
2023/01/10 08:54:40;;;;;;;12.82;1.30;;;4.90;99.90;;;;;;6231342;22;20015;-81
2023/01/10 08:57:06;;;;;;;10.27;1.02;;;5.00;99.90;;;;;;6226450;22;20137;-85
2023/01/10 08:59:32;;;;;;;13.80;1.30;;;5.00;99.90;;;;;;6214780;22;20483;-83
2023/01/10 09:01:58;;;;;;;8.05;1.08;;;5.10;99.90;;;;;;6216091;22;20019;-84
2023/01/10 09:04:25;;;;;;;9.30;1.20;;;5.20;99.90;;;;;;6258001;22;20163;-82
2023/01/10 09:06:51;;;;;;;14.65;1.30;;;5.20;99.90;;;;;;6230886;22;20314;-90
2023/01/10 09:09:17;;;;;;;10.43;1.10;;;5.20;99.90;;;;;;6232557;22;20161;-84
2023/01/10 09:11:43;;;;;;;6.85;0.77;;;5.30;99.90;;;;;;6231424;22;20541;-83
2023/01/10 09:14:08;;;;;;;11.13;0.60;;;5.30;99.90;;;;;;6257276;22;20049;-93
2023/01/10 09:16:34;;;;;;;16.52;1.85;;;5.40;99.90;;;;;;6256687;22;20014;-84
2023/01/10 09:19:00;;;;;;;8.27;0.60;;;5.30;99.90;;;;;;6257894;22;20011;-84
2023/01/10 09:21:27;;;;;;;11.80;1.02;;;5.30;99.90;;;;;;6257053;22;20018;-87
2023/01/10 09:23:56;;;;;;;10.73;0.70;;;5.30;99.90;;;;;;6231101;22;20015;-84
2023/01/10 09:26:22;;;;;;;11.20;0.70;;;5.30;99.90;;;;;;6255590;22;20076;-84
2023/01/10 09:28:48;;;;;;;10.13;1.27;;;5.40;99.90;;;;;;6283066;22;20095;-84
2023/01/10 09:31:13;;;;;;;9.85;1.20;;;5.40;99.90;;;;;;6256779;22;20011;-83
2023/01/10 09:33:43;;;;;;;10.90;0.90;;;5.50;99.90;;;;;;6256989;22;20038;-82
2023/01/10 09:36:09;;;;;;;12.82;1.67;;;5.40;99.90;;;;;;6257462;22;20027;-85
2023/01/10 09:38:36;;;;;;;11.05;0.95;;;5.50;99.90;;;;;;6255840;22;20136;-83
2023/01/10 09:41:30;;;;;;;11.88;1.20;;;5.60;99.90;;;;;;6217041;22;20338;-83
2023/01/10 09:44:19;;;;;;;6.80;0.63;;;5.60;99.90;;;;;;6234117;22;20041;-88
2023/01/10 09:46:58;;;;;;;11.68;1.02;;;5.60;99.90;;;;;;6204190;22;20023;-87
2023/01/10 09:49:27;;;;;;;12.45;1.15;;;5.70;99.90;;;;;;6268150;22;20015;-90
2023/01/10 09:51:56;;;;;;;12.32;1.17;;;5.70;99.90;;;;;;6227763;22;20519;-88
2023/01/10 09:54:35;;;;;;;10.35;0.70;;;5.70;99.90;;;;;;6229869;22;20023;-83
2023/01/10 09:57:01;;;;;;;5.47;0.70;;;5.70;99.90;;;;;;6205942;22;20114;-84
2023/01/10 09:59:35;;;;;;;10.60;0.93;;;5.80;99.90;;;;;;6285194;22;20063;-86
2023/01/10 10:02:27;;;;;;;8.90;0.80;;;5.80;99.90;;;;;;6231729;22;20370;-83
2023/01/10 10:05:11;;;;;;;4.55;0.40;;;5.80;99.90;;;;;;6220350;22;20018;-82
2023/01/10 10:07:37;;;;;;;8.65;1.30;;;5.80;99.90;;;;;;6258399;22;20035;-86
2023/01/10 10:10:15;;;;;;;9.85;0.68;;;5.80;99.90;;;;;;6256168;22;20034;-82
2023/01/10 10:13:15;;;;;;;8.02;0.95;;;5.80;99.90;;;;;;6258368;22;20007;-89
2023/01/10 10:16:10;;;;;;;11.00;0.80;;;5.80;99.90;;;;;;6230862;22;20036;-83
2023/01/10 10:19:03;;;;;;;12.25;0.90;;;5.80;99.90;;;;;;6233552;22;20019;-84
2023/01/10 10:21:48;;;;;;;14.32;1.23;;;5.80;99.90;;;;;;6258293;22;20569;-84
2023/01/10 10:24:49;;;;;;;9.75;1.08;;;5.80;99.90;;;;;;6231351;22;20011;-85
2023/01/10 10:27:20;;;;;;;8.45;1.00;;;5.90;99.90;;;;;;6257251;22;20485;-84
2023/01/10 10:30:10;;;;;;;11.52;1.00;;;5.80;99.90;;;;;;6231156;22;19999;-92
2023/01/10 10:33:03;;;;;;;11.85;0.70;;;5.80;99.90;;;;;;6258496;22;20011;-85
2023/01/10 10:35:38;;;;;;;15.18;1.02;;;5.80;99.90;;;;;;6232486;22;20113;-86
2023/01/10 10:38:42;;;;;;;11.38;1.33;;;5.90;99.90;;;;;;6208655;22;20046;-86
2023/01/10 10:41:26;;;;;;;7.68;0.50;;;5.90;99.90;;;;;;6167131;22;20015;-83
2023/01/10 10:43:54;;;;;;;8.60;1.02;;;5.90;99.90;;;;;;6239779;22;20011;-86
2023/01/10 10:46:21;;;;;;;12.40;1.25;;;5.90;99.90;;;;;;6218068;22;20121;-83
2023/01/10 10:48:58;;;;;;;12.07;0.88;;;5.90;99.90;;;;;;6228472;22;20018;-90
2023/01/10 10:51:41;;;;;;;7.80;0.70;;;6.00;99.90;;;;;;6229214;22;20038;-87
2023/01/10 10:54:11;;;;;;;17.30;1.52;;;6.00;99.90;;;;;;6204791;22;20019;-91
2023/01/10 10:56:37;;;;;;;11.85;0.98;;;6.00;99.90;;;;;;6228975;22;20010;-88
2023/01/10 10:59:04;;;;;;;10.73;0.70;;;6.10;99.90;;;;;;6232614;22;20973;-84
2023/01/10 11:01:36;;;;;;;11.40;0.90;;;6.10;99.90;;;;;;6232254;22;20102;-84
2023/01/10 11:04:12;;;;;;;11.68;1.13;;;6.10;99.90;;;;;;6231242;22;20098;-89
2023/01/10 11:06:44;;;;;;;17.25;2.22;;;6.10;99.90;;;;;;6256838;22;20018;-86
2023/01/10 11:09:12;;;;;;;15.02;1.02;;;6.10;99.90;;;;;;6231327;22;20011;-88
2023/01/10 11:11:43;;;;;;;9.73;0.60;;;6.10;99.90;;;;;;6256464;22;20015;-85
2023/01/10 11:14:10;;;;;;;8.68;0.73;;;6.20;99.90;;;;;;6230554;22;20011;-82
2023/01/10 11:16:42;;;;;;;7.55;1.23;;;6.30;99.90;;;;;;6230736;22;20017;-85
2023/01/10 11:19:18;;;;;;;12.05;1.70;;;6.30;99.90;;;;;;6231391;22;20015;-85
2023/01/10 11:21:56;;;;;;;9.27;0.80;;;6.20;99.90;;;;;;6230182;22;20031;-89
2023/01/10 11:24:49;;;;;;;6.78;0.57;;;6.20;99.90;;;;;;6257781;22;20370;-89
2023/01/10 11:27:22;;;;;;;13.77;1.00;;;6.20;99.90;;;;;;6197287;22;20492;-86
2023/01/10 11:30:00;;;;;;;8.98;0.95;;;6.20;99.90;;;;;;6207830;22;20007;-83
2023/01/10 11:32:57;;;;;;;6.70;0.70;;;6.20;99.90;;;;;;6259960;22;20032;-82
2023/01/10 11:35:29;;;;;;;11.20;0.80;;;6.10;99.90;;;;;;6215928;22;20023;-84
2023/01/10 11:38:17;;;;;;;12.40;0.80;;;6.10;99.90;;;;;;6246619;22;20344;-84
2023/01/10 11:40:53;;;;;;;;;;;6.10;99.90;;;;;;6255247;22;20010;-87
2023/01/10 11:43:39;;;;;;;11.93;0.90;;;6.20;99.90;;;;;;6259493;22;19937;-84
2023/01/10 11:46:19;;;;;;;11.27;0.70;;;6.20;99.90;;;;;;6251567;22;20065;-84
2023/01/10 11:49:00;;;;;;;8.27;0.60;;;6.20;99.90;;;;;;6258293;22;20102;-86
2023/01/10 11:51:30;;;;;;;10.90;0.60;;;6.30;99.90;;;;;;6231028;22;20015;-86
2023/01/10 11:54:01;;;;;;;10.13;0.70;;;6.30;99.90;;;;;;6222964;22;20380;-92
2023/01/10 11:56:32;;;;;;;7.97;0.73;;;6.30;99.90;;;;;;6232804;22;20098;-87
2023/01/10 11:59:08;;;;;;;12.77;0.80;;;6.40;99.90;;;;;;6259703;22;20064;-88
2023/01/10 12:01:40;;;;;;;7.97;0.63;;;6.40;99.90;;;;;;6233133;22;20015;-86
2023/01/10 12:04:12;;;;;;;5.93;0.35;;;6.40;99.90;;;;;;6233388;22;20015;-88
2023/01/10 12:06:43;;;;;;;11.30;0.70;;;6.50;99.90;;;;;;6258100;22;20400;-91
2023/01/10 12:09:56;;;;;;;7.22;0.60;;;6.50;99.90;;;;;;6233920;22;20041;-90
2023/01/10 12:12:26;;;;;;;5.70;0.43;;;6.50;99.90;;;;;;6234420;22;20045;-91
2023/01/10 12:15:48;;;;;;;7.70;0.60;;;6.50;99.90;;;;;;6230587;22;20046;-91
2023/01/10 12:18:26;;;;;;;12.50;0.63;;;6.50;99.90;;;;;;6212950;22;20043;-85
2023/01/10 12:23:30;;;;;;;8.55;1.02;;;6.50;99.90;;;;;;6227400;23;20035;-85
2023/01/10 12:26:49;;;;;;;7.05;0.70;;;6.50;99.90;;;;;;6174460;23;20007;-89
2023/01/10 12:30:00;;;;;;;6.93;0.47;;;6.60;99.90;;;;;;6168749;23;20393;-92
2023/01/10 12:36:35;;;;;;;6.95;0.90;;;6.60;99.90;;;;;;6217025;23;20012;-91
2023/01/10 12:39:34;;;;;;;14.40;1.02;;;6.60;99.90;;;;;;6174691;23;20016;-89
2023/01/10 12:46:14;;;;;;;9.70;0.88;;;6.60;99.90;;;;;;6227043;23;20023;-91
2023/01/10 12:49:20;;;;;;;8.95;0.80;;;6.60;99.90;;;;;;6160923;23;20074;-92
2023/01/10 12:51:50;;;;;;;6.43;0.52;;;6.60;99.90;;;;;;6173073;23;20104;-85
2023/01/10 12:54:27;;;;;;;10.85;0.60;;;6.60;99.90;;;;;;6200289;23;20015;-88
2023/01/10 12:57:16;;;;;;;7.40;0.50;;;6.60;99.90;;;;;;6156564;23;20444;-92
2023/01/10 13:00:05;;;;;;;7.85;0.60;;;6.60;99.90;;;;;;6191502;23;20012;-93
2023/01/10 13:03:43;;;;;;;;;;;;;;;;;;;;;
2023/01/10 13:10:41;;;;;;;6.63;0.50;;;6.60;99.90;;;;;;6225924;22;20119;-93
2023/01/10 13:17:26;;;;;;;8.57;1.70;;;6.60;99.90;;;;;;6256795;22;20395;-87
2023/01/10 13:20:29;;;;;;;5.72;0.55;;;6.60;99.90;;;;;;6227756;22;20007;-84
2023/01/10 13:26:14;;;;;;;13.73;0.95;;;6.60;99.90;;;;;;6213947;22;20014;-92
2023/01/10 14:06:14;;;;;;;5.63;0.57;;;6.70;99.90;;;;;;5987800;23;20084;-93
2023/01/10 14:09:43;;;;;;;8.60;0.65;;;6.70;99.90;;;;;;5880509;24;20136;-90
2023/01/10 14:12:54;;;;;;;8.60;0.60;;;6.70;99.90;;;;;;5905502;24;20045;-88
2023/01/10 14:22:32;;;;;;;;;;;;;;;;;;;;;
2023/01/10 14:25:38;;;;;;;8.77;0.60;;;6.80;99.90;;;;;;5991179;23;20024;-89
2023/01/10 14:35:38;;;;;;;7.82;0.50;;;6.80;99.90;;;;;;6227206;23;20020;-91
2023/01/10 14:46:36;;;;;;;13.32;0.73;;;6.90;99.90;;;;;;6142124;22;20404;-91
2023/01/10 14:56:32;;;;;;;;;;;;;;;;;;;;;
2023/01/10 14:59:25;;;;;;;12.00;0.75;;;7.00;99.90;;;;;;6194975;23;20563;-85
2023/01/10 15:02:29;;;;;;;15.70;1.00;;;7.00;99.90;;;;;;6168722;23;20090;-88
2023/01/10 15:05:26;;;;;;;9.82;0.80;;;7.00;99.90;;;;;;6193963;23;20040;-86